Time;durP1;ratioP1;P1;durP2;ratioP2;P2;SDS_P1;SDS_P2;PMS_P1;PMS_P2;Temp;Humidity;BMP_temperature;BMP_pressure;BME280_temperature;BME280_humidity;BME280_pressure;Samples;Min_cycle;Max_cycle;Signal;HPM_P1;HPM_P2
2023/05/08 00:02:08;;;;;;;2.40;2.20;;;10.20;99.90;;;;;;5065184;28;20225;-51
2023/05/08 00:04:35;;;;;;;2.30;2.10;;;10.20;99.90;;;;;;5074987;28;20189;-45
2023/05/08 00:07:01;;;;;;;2.10;1.97;;;10.20;99.90;;;;;;5085638;28;20201;-48
2023/05/08 00:09:29;;;;;;;2.07;1.97;;;10.10;99.90;;;;;;5082421;28;20480;-52
2023/05/08 00:11:56;;;;;;;2.33;2.13;;;10.10;99.90;;;;;;5086096;28;20190;-47
2023/05/08 00:14:23;;;;;;;2.10;2.00;;;10.00;99.90;;;;;;5062059;28;20768;-53
2023/05/08 00:16:51;;;;;;;2.27;2.03;;;10.00;99.90;;;;;;5076916;28;20186;-53
2023/05/08 00:19:18;;;;;;;2.17;1.97;;;9.90;99.90;;;;;;5072187;28;20441;-51
2023/05/08 00:21:45;;;;;;;2.30;2.20;;;9.90;99.90;;;;;;5083753;28;20814;-44
2023/05/08 00:24:12;;;;;;;2.20;2.10;;;9.90;99.90;;;;;;5085849;28;20206;-51
2023/05/08 00:26:40;;;;;;;4.00;2.23;;;9.90;99.90;;;;;;5082035;28;20263;-45
2023/05/08 00:29:07;;;;;;;2.23;2.13;;;9.90;99.90;;;;;;5053153;28;20938;-50
2023/05/08 00:31:34;;;;;;;2.33;2.13;;;9.90;99.90;;;;;;5072458;28;20483;-46
2023/05/08 00:34:03;;;;;;;2.57;2.33;;;9.80;99.90;;;;;;5075740;28;20194;-45
2023/05/08 00:36:31;;;;;;;2.50;2.13;;;9.80;99.90;;;;;;5081579;28;20186;-51
2023/05/08 00:38:58;;;;;;;3.33;2.53;;;9.80;99.90;;;;;;5085394;28;20209;-45
2023/05/08 00:41:25;;;;;;;3.10;2.50;;;9.80;99.90;;;;;;5080649;28;20202;-51
2023/05/08 00:43:52;;;;;;;2.27;2.10;;;9.70;99.90;;;;;;5058308;28;20206;-51
2023/05/08 00:46:20;;;;;;;2.17;2.07;;;9.70;99.90;;;;;;5077095;28;20284;-48
2023/05/08 00:48:51;;;;;;;2.77;2.30;;;9.70;99.90;;;;;;5074881;28;20222;-46
2023/05/08 00:51:20;;;;;;;3.70;2.60;;;9.70;99.90;;;;;;5083704;28;20225;-49
2023/05/08 00:53:47;;;;;;;3.13;2.43;;;9.70;99.90;;;;;;5081976;28;20182;-52
2023/05/08 00:56:16;;;;;;;3.17;2.90;;;9.60;99.90;;;;;;5083544;28;20222;-54
2023/05/08 00:58:44;;;;;;;3.87;2.87;;;9.60;99.90;;;;;;5074733;28;20983;-47
2023/05/08 01:01:11;;;;;;;2.57;2.30;;;9.60;99.90;;;;;;5058934;28;20664;-48
2023/05/08 01:03:39;;;;;;;2.60;2.40;;;9.60;99.90;;;;;;5070837;28;20907;-44
2023/05/08 01:06:06;;;;;;;2.77;2.47;;;9.50;99.90;;;;;;5085382;28;20213;-48
2023/05/08 01:08:35;;;;;;;2.67;2.47;;;9.50;99.90;;;;;;5078776;28;20320;-49
2023/05/08 01:11:09;;;;;;;3.50;2.60;;;9.50;99.90;;;;;;5075839;28;20193;-51
2023/05/08 01:13:49;;;;;;;2.67;2.47;;;9.50;99.90;;;;;;5072364;28;20247;-48
2023/05/08 01:16:43;;;;;;;3.43;2.33;;;9.40;99.90;;;;;;5060649;28;20216;-52
2023/05/08 01:19:32;;;;;;;3.10;2.87;;;9.40;99.90;;;;;;5076169;28;20326;-46
2023/05/08 01:22:04;;;;;;;2.50;2.30;;;9.40;99.90;;;;;;5083198;28;20194;-45
2023/05/08 01:24:51;;;;;;;2.60;2.40;;;9.40;99.90;;;;;;5068515;28;20202;-51
2023/05/08 01:27:40;;;;;;;2.50;2.40;;;9.40;99.90;;;;;;5059559;28;20283;-52
2023/05/08 01:30:26;;;;;;;2.40;2.20;;;9.40;99.90;;;;;;5078795;28;20197;-48
2023/05/08 01:33:01;;;;;;;2.70;2.50;;;9.30;99.90;;;;;;5079344;28;20198;-45
2023/05/08 01:35:33;;;;;;;2.40;2.30;;;9.30;99.90;;;;;;5070487;28;20873;-52
2023/05/08 01:38:08;;;;;;;3.67;2.73;;;9.30;99.90;;;;;;5082068;28;20222;-50
2023/05/08 01:40:45;;;;;;;2.70;2.50;;;9.30;99.90;;;;;;5072752;28;20707;-48
2023/05/08 01:43:18;;;;;;;2.50;2.40;;;9.20;99.90;;;;;;5078244;28;20198;-49
2023/05/08 01:45:49;;;;;;;2.57;2.40;;;9.20;99.90;;;;;;5078317;28;20206;-43
2023/05/08 01:48:24;;;;;;;3.20;3.03;;;9.10;99.90;;;;;;5062675;28;20222;-53
2023/05/08 01:50:56;;;;;;;2.60;2.47;;;9.10;99.90;;;;;;5071102;28;20213;-43
2023/05/08 01:53:28;;;;;;;2.63;2.40;;;9.10;99.90;;;;;;5073570;28;20209;-48
2023/05/08 01:55:59;;;;;;;2.90;2.60;;;9.20;99.90;;;;;;5078727;28;20212;-48
2023/05/08 01:58:28;;;;;;;2.67;2.47;;;9.10;99.90;;;;;;5076796;28;20624;-52
2023/05/08 02:00:58;;;;;;;4.67;2.60;;;9.10;99.90;;;;;;5082047;28;20644;-48
2023/05/08 02:03:27;;;;;;;2.40;2.20;;;9.10;99.90;;;;;;5060451;28;20213;-54
2023/05/08 02:05:57;;;;;;;2.60;2.40;;;9.10;99.90;;;;;;5074357;28;20218;-49
2023/05/08 02:08:26;;;;;;;2.33;2.17;;;9.00;99.90;;;;;;5064145;28;20248;-51
2023/05/08 02:10:56;;;;;;;2.67;2.47;;;9.00;99.90;;;;;;5080910;28;20247;-48
2023/05/08 02:13:25;;;;;;;3.67;2.57;;;9.00;99.90;;;;;;5080348;28;20216;-53
2023/05/08 02:15:55;;;;;;;2.77;2.57;;;8.90;99.90;;;;;;5081768;28;20648;-50
2023/05/08 02:18:24;;;;;;;2.37;2.27;;;8.90;99.90;;;;;;5061830;28;20233;-52
2023/05/08 02:20:55;;;;;;;2.70;2.50;;;8.90;99.90;;;;;;5069137;28;20245;-48
2023/05/08 02:23:25;;;;;;;2.67;2.47;;;8.80;99.90;;;;;;5065538;28;20220;-50
2023/05/08 02:25:53;;;;;;;2.47;2.27;;;8.80;99.90;;;;;;5081287;28;20594;-48
2023/05/08 02:28:20;;;;;;;3.07;2.87;;;8.80;99.90;;;;;;5081973;28;20229;-52
2023/05/08 02:30:48;;;;;;;3.00;2.80;;;8.80;99.90;;;;;;5081673;28;20903;-47
2023/05/08 02:33:17;;;;;;;3.10;2.80;;;8.80;99.90;;;;;;5061217;28;20206;-52
2023/05/08 02:35:46;;;;;;;3.00;2.80;;;8.70;99.90;;;;;;5071564;28;20181;-50
2023/05/08 02:38:16;;;;;;;3.07;2.60;;;8.70;99.90;;;;;;5072835;28;20304;-51
2023/05/08 02:40:47;;;;;;;2.80;2.60;;;8.70;99.90;;;;;;5079346;28;20815;-44
2023/05/08 02:43:14;;;;;;;6.90;2.73;;;8.60;99.90;;;;;;5075817;28;20301;-53
2023/05/08 02:45:48;;;;;;;3.30;3.00;;;8.60;99.90;;;;;;5078776;28;20799;-45
2023/05/08 02:48:22;;;;;;;2.60;2.40;;;8.60;99.90;;;;;;5068892;28;20723;-52
2023/05/08 02:50:56;;;;;;;3.20;2.90;;;8.50;99.90;;;;;;5069173;28;20268;-44
2023/05/08 02:53:34;;;;;;;3.10;2.80;;;8.50;99.90;;;;;;5067220;28;20317;-52
2023/05/08 02:56:07;;;;;;;3.50;3.00;;;8.50;99.90;;;;;;5081702;28;20276;-46
2023/05/08 02:58:42;;;;;;;3.27;2.97;;;8.50;99.90;;;;;;5079398;28;20209;-44
2023/05/08 03:01:18;;;;;;;4.43;3.13;;;8.40;99.90;;;;;;5078091;28;20602;-47
2023/05/08 03:03:49;;;;;;;4.23;2.97;;;8.40;99.90;;;;;;5071871;28;20182;-47
2023/05/08 03:06:20;;;;;;;3.10;2.90;;;8.40;99.90;;;;;;5059235;28;20552;-52
2023/05/08 03:08:51;;;;;;;3.43;3.13;;;8.30;99.90;;;;;;5070060;28;20325;-53
2023/05/08 03:11:24;;;;;;;3.40;3.10;;;8.30;99.90;;;;;;5082062;28;20319;-54
2023/05/08 03:13:56;;;;;;;3.20;2.90;;;8.30;99.90;;;;;;5080513;28;20752;-44
2023/05/08 03:16:27;;;;;;;3.47;3.17;;;8.30;99.90;;;;;;5072590;28;20210;-51
2023/05/08 03:18:59;;;;;;;3.07;2.80;;;8.30;99.90;;;;;;5078714;28;20228;-48
2023/05/08 03:21:30;;;;;;;3.73;2.90;;;8.20;99.90;;;;;;5061979;28;20210;-56
2023/05/08 03:24:02;;;;;;;3.43;3.20;;;8.20;99.90;;;;;;5086915;28;20552;-47
2023/05/08 03:26:29;;;;;;;3.07;2.87;;;8.20;99.90;;;;;;5073727;28;20228;-52
2023/05/08 03:28:57;;;;;;;3.13;2.93;;;8.10;99.90;;;;;;5083989;28;21005;-50
2023/05/08 03:31:32;;;;;;;3.80;3.00;;;8.20;99.90;;;;;;5069747;28;20589;-51
2023/05/08 03:34:02;;;;;;;3.50;3.20;;;8.10;99.90;;;;;;5078475;28;20251;-49
2023/05/08 03:36:30;;;;;;;2.80;2.53;;;8.10;99.90;;;;;;5067018;28;20285;-44
2023/05/08 03:38:59;;;;;;;5.27;3.63;;;8.10;99.90;;;;;;5081197;28;20822;-44
2023/05/08 03:41:26;;;;;;;2.93;2.70;;;8.10;99.90;;;;;;5077993;28;20213;-44
2023/05/08 03:43:54;;;;;;;2.90;2.70;;;8.10;99.90;;;;;;5075569;28;20793;-51
2023/05/08 03:46:22;;;;;;;3.30;3.00;;;8.10;99.90;;;;;;5080948;28;20198;-49
2023/05/08 03:48:51;;;;;;;3.50;3.20;;;8.10;99.90;;;;;;5082362;28;20297;-52
2023/05/08 03:51:19;;;;;;;3.33;3.07;;;8.00;99.90;;;;;;5085096;28;20186;-46
2023/05/08 03:53:46;;;;;;;3.53;3.23;;;8.00;99.90;;;;;;5062340;28;20206;-53
2023/05/08 03:56:16;;;;;;;3.17;2.97;;;7.90;99.90;;;;;;5073187;28;20489;-49
2023/05/08 03:58:48;;;;;;;3.43;3.23;;;7.90;99.90;;;;;;5076810;28;20210;-50
2023/05/08 04:01:23;;;;;;;3.67;3.37;;;7.80;99.90;;;;;;5081644;28;20201;-45
2023/05/08 04:03:57;;;;;;;3.30;3.00;;;7.90;99.90;;;;;;5067353;28;20799;-47
2023/05/08 04:06:29;;;;;;;4.00;3.70;;;7.90;99.90;;;;;;5083687;28;20221;-48
2023/05/08 04:09:07;;;;;;;3.50;3.20;;;7.80;99.90;;;;;;5055378;28;20214;-51
2023/05/08 04:11:43;;;;;;;3.37;3.17;;;7.80;99.90;;;;;;5070558;28;20188;-55
2023/05/08 04:14:16;;;;;;;3.50;3.20;;;7.80;99.90;;;;;;5076744;28;20255;-46
2023/05/08 04:16:48;;;;;;;3.50;3.20;;;7.80;99.90;;;;;;5070449;28;20948;-49
2023/05/08 04:19:20;;;;;;;3.60;2.80;;;7.90;99.90;;;;;;5066419;28;20238;-47
2023/05/08 04:21:50;;;;;;;3.60;3.10;;;7.80;99.90;;;;;;5078017;28;20271;-53
2023/05/08 04:24:20;;;;;;;3.90;3.60;;;7.80;99.90;;;;;;5050527;28;20198;-53
2023/05/08 04:26:49;;;;;;;4.43;3.33;;;7.80;99.90;;;;;;5074569;28;20305;-52
2023/05/08 04:29:17;;;;;;;3.33;3.13;;;7.80;99.90;;;;;;5070292;28;20309;-48
2023/05/08 04:31:45;;;;;;;3.43;3.23;;;7.90;99.90;;;;;;5082311;28;20247;-50
2023/05/08 04:34:12;;;;;;;4.30;3.50;;;7.90;99.90;;;;;;5077435;28;20194;-51
2023/05/08 04:36:40;;;;;;;3.90;3.57;;;7.90;99.90;;;;;;5074797;28;20194;-53
2023/05/08 04:39:08;;;;;;;3.50;3.20;;;7.90;99.90;;;;;;5046159;28;20323;-49
2023/05/08 04:41:35;;;;;;;3.80;3.10;;;7.90;99.90;;;;;;5075559;28;20199;-53
2023/05/08 04:44:04;;;;;;;3.80;3.50;;;7.90;99.90;;;;;;5070876;28;20205;-46
2023/05/08 04:46:31;;;;;;;3.83;3.50;;;8.00;99.90;;;;;;5080356;28;20654;-48
2023/05/08 04:48:58;;;;;;;3.70;3.40;;;8.00;99.90;;;;;;5078773;28;20210;-53
2023/05/08 04:51:26;;;;;;;4.07;3.77;;;8.00;99.90;;;;;;5071841;28;20194;-55
2023/05/08 04:53:54;;;;;;;3.87;3.53;;;8.10;99.90;;;;;;5059418;28;20278;-49
2023/05/08 04:56:21;;;;;;;4.03;3.73;;;8.10;99.90;;;;;;5060367;28;20214;-48
2023/05/08 04:58:48;;;;;;;5.17;3.80;;;8.20;99.90;;;;;;5060224;28;20221;-54
2023/05/08 05:01:17;;;;;;;3.30;3.10;;;8.20;99.90;;;;;;5079670;28;20236;-45
2023/05/08 05:03:44;;;;;;;4.30;4.00;;;8.30;99.90;;;;;;5071696;28;20194;-48
2023/05/08 05:06:11;;;;;;;4.17;3.70;;;8.30;99.90;;;;;;5059726;28;20735;-49
2023/05/08 05:08:39;;;;;;;3.90;3.60;;;8.30;99.90;;;;;;5049204;28;20225;-55
2023/05/08 05:11:06;;;;;;;3.77;3.47;;;8.40;99.90;;;;;;5055483;28;20255;-49
2023/05/08 05:13:33;;;;;;;3.93;3.63;;;8.40;99.90;;;;;;5071764;28;20209;-53
2023/05/08 05:16:00;;;;;;;4.13;3.83;;;8.50;99.90;;;;;;5075094;28;20209;-49
2023/05/08 05:18:30;;;;;;;3.70;3.40;;;8.50;99.90;;;;;;5075220;28;20822;-54
2023/05/08 05:20:58;;;;;;;5.13;3.63;;;8.50;99.90;;;;;;5064410;28;20198;-55
2023/05/08 05:23:28;;;;;;;4.27;3.77;;;8.60;99.90;;;;;;5057577;28;20202;-57
2023/05/08 05:26:13;;;;;;;3.63;3.43;;;8.70;99.90;;;;;;5052988;28;20217;-57
2023/05/08 05:28:41;;;;;;;4.10;3.80;;;8.70;99.90;;;;;;5071051;28;20214;-48
2023/05/08 05:31:09;;;;;;;5.60;3.80;;;8.80;99.90;;;;;;5067957;28;20254;-50
2023/05/08 05:33:37;;;;;;;3.80;3.50;;;8.80;99.90;;;;;;5080674;28;20186;-51
2023/05/08 05:36:05;;;;;;;4.27;3.87;;;8.90;99.90;;;;;;5050252;28;20198;-55
2023/05/08 05:38:32;;;;;;;6.00;4.07;;;9.00;99.90;;;;;;5075562;28;20210;-49
2023/05/08 05:41:00;;;;;;;19.43;4.13;;;9.00;99.90;;;;;;5052581;28;20210;-56
2023/05/08 05:43:26;;;;;;;3.97;3.67;;;9.00;99.90;;;;;;5069165;28;20216;-49
2023/05/08 05:46:14;;;;;;;4.73;4.27;;;9.10;99.90;;;;;;5071457;28;20343;-46
2023/05/08 05:48:43;;;;;;;5.37;4.27;;;9.10;99.90;;;;;;5064591;28;20219;-49
2023/05/08 05:51:28;;;;;;;4.00;3.70;;;9.20;99.90;;;;;;5078957;28;20201;-52
2023/05/08 05:53:56;;;;;;;5.33;4.57;;;9.30;99.90;;;;;;5068374;28;20202;-58
2023/05/08 05:56:24;;;;;;;4.77;4.37;;;9.30;99.90;;;;;;5069884;28;20193;-47
2023/05/08 05:58:51;;;;;;;5.17;4.10;;;9.30;99.90;;;;;;5056362;28;20217;-58
2023/05/08 06:01:18;;;;;;;6.73;4.23;;;9.40;99.90;;;;;;5066101;28;20293;-52
2023/05/08 06:03:47;;;;;;;4.40;4.00;;;9.40;99.90;;;;;;5071019;28;20190;-55
2023/05/08 06:06:36;;;;;;;4.33;3.93;;;9.50;99.90;;;;;;5082442;28;20208;-54
2023/05/08 06:09:03;;;;;;;4.40;4.00;;;9.50;99.90;;;;;;5074816;28;20219;-57
2023/05/08 06:11:30;;;;;;;4.57;4.10;;;9.50;99.90;;;;;;5067215;28;20218;-49
2023/05/08 06:13:58;;;;;;;4.37;3.97;;;9.60;99.90;;;;;;5054190;28;20198;-55
2023/05/08 06:16:26;;;;;;;4.87;4.37;;;9.70;99.90;;;;;;5059607;28;20216;-51
2023/05/08 06:18:55;;;;;;;4.67;4.27;;;9.70;99.90;;;;;;5075275;28;20556;-55
2023/05/08 06:21:21;;;;;;;4.10;3.80;;;9.80;99.90;;;;;;5079479;28;20190;-49
2023/05/08 06:23:49;;;;;;;5.57;4.30;;;9.80;99.90;;;;;;5080851;28;20197;-52
2023/05/08 06:26:15;;;;;;;4.70;4.07;;;9.90;99.90;;;;;;5066432;28;20201;-47
2023/05/08 06:28:42;;;;;;;5.90;4.07;;;10.00;99.90;;;;;;5049613;28;20232;-52
2023/05/08 06:31:10;;;;;;;4.70;4.37;;;10.00;99.90;;;;;;5071845;28;20275;-53
2023/05/08 06:33:37;;;;;;;4.43;4.13;;;10.00;99.90;;;;;;5073738;28;20206;-55
2023/05/08 06:36:06;;;;;;;4.87;4.33;;;10.10;99.90;;;;;;5079821;28;20260;-56
2023/05/08 06:38:34;;;;;;;5.13;4.63;;;10.10;99.90;;;;;;5082528;28;20235;-53
2023/05/08 06:41:01;;;;;;;4.77;4.37;;;10.20;99.90;;;;;;5078328;28;20202;-57
2023/05/08 06:43:29;;;;;;;5.00;4.60;;;10.30;99.90;;;;;;5066518;28;20213;-52
2023/05/08 06:45:56;;;;;;;5.17;4.67;;;10.40;99.90;;;;;;5056401;28;20217;-58
2023/05/08 06:48:27;;;;;;;5.20;4.80;;;10.40;99.90;;;;;;5063734;28;20226;-56
2023/05/08 06:50:55;;;;;;;5.70;4.67;;;10.50;99.90;;;;;;5074967;28;20653;-51
2023/05/08 06:53:23;;;;;;;5.73;5.23;;;10.60;99.90;;;;;;5075227;28;20220;-54
2023/05/08 06:55:51;;;;;;;5.10;4.70;;;10.60;99.90;;;;;;5066268;28;20195;-52
2023/05/08 06:58:17;;;;;;;5.93;4.70;;;10.70;99.90;;;;;;5050567;28;20306;-54
2023/05/08 07:00:44;;;;;;;5.87;4.60;;;10.80;99.90;;;;;;5050177;28;20198;-55
2023/05/08 07:03:11;;;;;;;5.27;4.77;;;10.90;99.90;;;;;;5065336;28;20199;-48
2023/05/08 07:05:38;;;;;;;5.43;4.90;;;11.00;99.90;;;;;;5069673;28;20582;-45
2023/05/08 07:08:05;;;;;;;5.07;4.60;;;11.00;99.90;;;;;;5072297;28;21556;-48
2023/05/08 07:10:33;;;;;;;4.97;4.57;;;11.10;99.90;;;;;;5068321;28;20210;-53
2023/05/08 07:12:59;;;;;;;5.23;4.77;;;11.20;99.90;;;;;;5065536;28;20206;-57
2023/05/08 07:15:26;;;;;;;6.20;4.37;;;11.30;99.90;;;;;;5073519;28;20243;-47
2023/05/08 07:17:53;;;;;;;5.50;4.83;;;11.40;99.90;;;;;;5054385;28;20296;-55
2023/05/08 07:20:20;;;;;;;5.37;4.93;;;11.50;99.90;;;;;;5064008;28;20206;-51
2023/05/08 07:22:47;;;;;;;4.67;4.37;;;11.50;99.90;;;;;;5079953;28;20241;-56
2023/05/08 07:25:13;;;;;;;5.27;4.87;;;11.50;99.90;;;;;;5071735;28;20190;-51
2023/05/08 07:27:41;;;;;;;6.83;5.40;;;11.50;99.90;;;;;;5064657;28;20210;-57
2023/05/08 07:30:09;;;;;;;5.93;5.47;;;11.50;99.90;;;;;;5070792;28;20186;-53
2023/05/08 07:32:37;;;;;;;7.40;5.23;;;11.40;99.90;;;;;;5061352;28;20221;-47
2023/05/08 07:35:07;;;;;;;7.27;6.00;;;11.40;99.90;;;;;;5060609;28;22815;-49
2023/05/08 07:37:33;;;;;;;6.07;5.57;;;11.40;99.90;;;;;;5079161;28;20198;-55
2023/05/08 07:40:00;;;;;;;5.23;4.83;;;11.50;99.90;;;;;;5069598;28;20770;-51
2023/05/08 07:42:27;;;;;;;5.87;5.37;;;11.50;99.90;;;;;;5074786;28;20600;-47
2023/05/08 07:44:55;;;;;;;5.23;4.83;;;11.70;99.90;;;;;;5073860;28;20238;-50
2023/05/08 07:47:22;;;;;;;6.33;5.57;;;11.70;99.90;;;;;;5058864;28;20444;-54
2023/05/08 07:49:48;;;;;;;5.60;5.10;;;11.80;99.90;;;;;;5078788;28;20213;-49
2023/05/08 07:52:15;;;;;;;5.77;5.27;;;11.90;99.90;;;;;;5066815;28;20194;-52
2023/05/08 07:54:42;;;;;;;5.97;5.40;;;11.90;99.90;;;;;;5071250;28;20198;-51
2023/05/08 07:57:10;;;;;;;5.87;5.37;;;12.00;99.90;;;;;;5072847;28;20316;-54
2023/05/08 07:59:37;;;;;;;6.90;6.30;;;12.00;99.90;;;;;;5075674;28;20222;-49
2023/05/08 08:02:05;;;;;;;5.43;5.03;;;12.10;99.90;;;;;;5077681;28;20428;-50
2023/05/08 08:04:31;;;;;;;5.93;5.43;;;12.20;99.90;;;;;;5059521;28;20229;-54
2023/05/08 08:06:58;;;;;;;6.27;5.70;;;12.20;99.90;;;;;;5067770;28;20649;-49
2023/05/08 08:09:25;;;;;;;5.97;5.43;;;12.30;99.90;;;;;;5082070;28;20297;-50
2023/05/08 08:11:53;;;;;;;6.00;5.60;;;12.40;99.90;;;;;;5072989;28;20249;-50
2023/05/08 08:14:19;;;;;;;7.40;6.43;;;12.60;99.90;;;;;;5082295;28;20195;-54
2023/05/08 08:16:47;;;;;;;7.63;5.90;;;12.90;99.90;;;;;;5082802;28;20206;-50
2023/05/08 08:19:15;;;;;;;6.07;5.57;;;13.00;99.90;;;;;;5062564;28;20237;-53
2023/05/08 08:21:43;;;;;;;7.27;6.57;;;13.10;99.90;;;;;;5069946;28;20194;-51
2023/05/08 08:24:09;;;;;;;6.33;5.83;;;13.10;99.90;;;;;;5076354;28;20194;-53
2023/05/08 08:26:36;;;;;;;5.93;5.40;;;13.30;99.90;;;;;;5084150;28;20225;-53
2023/05/08 08:29:03;;;;;;;5.80;5.33;;;13.30;99.90;;;;;;5075266;28;20474;-51
2023/05/08 08:31:30;;;;;;;6.20;5.70;;;13.50;99.90;;;;;;5077112;28;20272;-55
2023/05/08 08:33:57;;;;;;;6.83;6.23;;;13.60;99.90;;;;;;5059426;28;20217;-51
2023/05/08 08:36:25;;;;;;;7.73;6.30;;;13.60;99.90;;;;;;5079741;28;20276;-52
2023/05/08 08:38:52;;;;;;;6.40;5.90;;;13.70;99.90;;;;;;5066188;28;20345;-54
2023/05/08 08:41:20;;;;;;;6.27;5.73;;;13.80;99.90;;;;;;5084075;28;20202;-52
2023/05/08 08:43:46;;;;;;;6.07;5.57;;;13.90;99.90;;;;;;5066295;28;20213;-49
2023/05/08 08:46:14;;;;;;;6.80;6.23;;;13.80;99.90;;;;;;5080998;28;20456;-54
2023/05/08 08:48:44;;;;;;;6.30;5.80;;;13.60;99.90;;;;;;5057946;28;20756;-51
2023/05/08 08:51:18;;;;;;;5.63;5.23;;;13.50;99.90;;;;;;5075611;28;20202;-51
2023/05/08 08:53:49;;;;;;;5.40;4.90;;;13.60;99.90;;;;;;5075110;28;20260;-52
2023/05/08 08:56:16;;;;;;;5.07;4.67;;;13.90;99.90;;;;;;5080128;28;20293;-55
2023/05/08 08:58:49;;;;;;;5.63;5.13;;;14.00;99.90;;;;;;5081222;28;20716;-49
2023/05/08 09:01:19;;;;;;;5.70;5.23;;;14.00;99.90;;;;;;5066941;28;20249;-51
2023/05/08 09:03:45;;;;;;;5.20;4.80;;;13.90;99.90;;;;;;5065186;28;20194;-52
2023/05/08 09:06:13;;;;;;;5.30;4.87;;;13.70;99.90;;;;;;5080421;28;20206;-50
2023/05/08 09:08:41;;;;;;;5.90;5.30;;;13.70;99.90;;;;;;5075112;28;20944;-52
2023/05/08 09:11:09;;;;;;;5.77;5.27;;;13.60;99.90;;;;;;5075486;28;20278;-51
2023/05/08 09:13:35;;;;;;;5.23;4.83;;;13.60;99.90;;;;;;5065325;28;20342;-50
2023/05/08 09:16:02;;;;;;;6.33;5.30;;;13.60;99.90;;;;;;5069605;28;20198;-53
2023/05/08 09:18:29;;;;;;;6.00;5.47;;;13.70;99.90;;;;;;5071685;28;20214;-52
2023/05/08 09:20:59;;;;;;;5.10;4.70;;;13.70;99.90;;;;;;5063286;28;20885;-55
2023/05/08 09:23:25;;;;;;;5.30;4.90;;;13.70;99.90;;;;;;5080516;28;20276;-53
2023/05/08 09:25:53;;;;;;;5.13;4.70;;;13.80;99.90;;;;;;5078859;28;20202;-53
2023/05/08 09:28:23;;;;;;;4.77;4.37;;;13.90;99.90;;;;;;5071292;28;20218;-54
2023/05/08 09:30:53;;;;;;;5.87;4.73;;;14.00;99.90;;;;;;5057201;28;21044;-52
2023/05/08 09:33:21;;;;;;;5.53;5.03;;;14.20;99.90;;;;;;5071677;28;20624;-48
2023/05/08 09:35:49;;;;;;;5.67;5.13;;;14.30;99.90;;;;;;5056756;28;20199;-49
2023/05/08 09:38:34;;;;;;;5.63;5.10;;;14.30;99.90;;;;;;5076459;28;20696;-47
2023/05/08 09:41:13;;;;;;;4.87;4.57;;;14.30;99.90;;;;;;5066844;28;20232;-53
2023/05/08 09:43:43;;;;;;;5.40;4.90;;;14.40;99.90;;;;;;5064752;28;20205;-52
2023/05/08 09:46:23;;;;;;;4.83;4.43;;;14.50;99.90;;;;;;5066570;28;20232;-51
2023/05/08 09:48:50;;;;;;;5.83;5.33;;;14.50;99.90;;;;;;5072162;28;20691;-47
2023/05/08 09:51:17;;;;;;;5.73;4.87;;;;;;;;;;5067457;28;20864;-49
2023/05/08 09:53:44;;;;;;;5.90;5.30;;;14.70;99.90;;;;;;5077878;28;20190;-54
2023/05/08 09:56:11;;;;;;;6.70;5.43;;;14.70;99.90;;;;;;5063367;28;20206;-51
2023/05/08 09:58:39;;;;;;;5.30;4.90;;;14.50;99.90;;;;;;5062920;28;20210;-55
2023/05/08 10:01:07;;;;;;;5.03;4.40;;;14.40;99.90;;;;;;5066880;28;20226;-52
2023/05/08 10:03:47;;;;;;;5.07;4.47;;;14.40;99.90;;;;;;5077316;28;20253;-51
2023/05/08 10:06:15;;;;;;;6.57;4.50;;;14.40;99.90;;;;;;5051908;28;20206;-53
2023/05/08 10:08:42;;;;;;;4.97;4.57;;;14.50;99.90;;;;;;5077959;28;20217;-53
2023/05/08 10:11:16;;;;;;;5.00;4.60;;;14.70;99.90;;;;;;5061676;28;20272;-52
2023/05/08 10:13:43;;;;;;;4.77;4.37;;;14.80;99.90;;;;;;5070135;28;20187;-51
2023/05/08 10:16:15;;;;;;;4.83;4.53;;;14.90;99.90;;;;;;5066131;28;20213;-54
2023/05/08 10:18:47;;;;;;;5.17;4.43;;;15.20;99.90;;;;;;5070003;28;20811;-54
2023/05/08 10:21:15;;;;;;;4.53;4.23;;;15.50;99.90;;;;;;5061185;28;20213;-53
2023/05/08 10:23:43;;;;;;;5.30;4.37;;;15.70;99.90;;;;;;5069167;28;20204;-52
2023/05/08 10:26:13;;;;;;;5.00;4.30;;;15.80;99.90;;;;;;5065624;28;20203;-54
2023/05/08 10:28:44;;;;;;;5.10;4.60;;;16.00;99.90;;;;;;5072421;28;20214;-53
2023/05/08 10:31:17;;;;;;;4.60;4.30;;;16.10;99.90;;;;;;5063795;28;20220;-54
2023/05/08 10:33:45;;;;;;;4.17;3.77;;;16.10;99.90;;;;;;5072732;28;20665;-52
2023/05/08 10:36:13;;;;;;;4.70;4.30;;;16.10;99.90;;;;;;5043706;28;20272;-50
2023/05/08 10:38:42;;;;;;;5.60;4.60;;;16.10;99.90;;;;;;5070283;28;20237;-49
2023/05/08 10:41:10;;;;;;;22.57;11.17;;;16.10;99.90;;;;;;5072370;28;20194;-49
2023/05/08 10:43:42;;;;;;;4.77;4.47;;;16.10;99.90;;;;;;5068075;28;20197;-50
2023/05/08 10:46:15;;;;;;;4.33;4.03;;;16.20;99.90;;;;;;5066471;28;20293;-46
2023/05/08 10:48:50;;;;;;;5.00;4.27;;;16.40;99.90;;;;;;5076424;28;20209;-51
2023/05/08 10:51:22;;;;;;;4.00;3.70;;;;;;;;;;5062634;28;20258;-50
2023/05/08 10:53:55;;;;;;;4.40;4.10;;;16.30;99.90;;;;;;5052530;28;20229;-52
2023/05/08 10:56:26;;;;;;;4.30;4.00;;;16.50;99.90;;;;;;5070425;28;20190;-53
2023/05/08 10:58:56;;;;;;;4.57;4.23;;;16.50;99.90;;;;;;5078878;28;20225;-50
2023/05/08 11:01:25;;;;;;;4.20;3.90;;;16.50;99.90;;;;;;5057644;28;20264;-50
2023/05/08 11:03:53;;;;;;;4.03;3.73;;;16.70;99.90;;;;;;5072851;28;20193;-50
2023/05/08 11:06:41;;;;;;;3.83;3.53;;;16.80;99.90;;;;;;5068742;28;20280;-54
2023/05/08 11:09:08;;;;;;;3.83;3.53;;;17.00;99.90;;;;;;5051649;28;20357;-49
2023/05/08 11:11:39;;;;;;;5.17;3.70;;;17.00;99.80;;;;;;5078513;28;20197;-51
2023/05/08 11:14:14;;;;;;;3.80;3.50;;;16.80;99.30;;;;;;5073790;28;20194;-53
2023/05/08 11:17:08;;;;;;;3.90;3.70;;;16.80;99.90;;;;;;5060166;28;20200;-51
2023/05/08 11:19:36;;;;;;;4.00;3.43;;;16.80;99.50;;;;;;5069949;28;20293;-50
2023/05/08 11:22:23;;;;;;;3.90;3.60;;;16.80;99.70;;;;;;5062512;28;20205;-46
2023/05/08 11:24:55;;;;;;;3.73;3.43;;;16.80;98.90;;;;;;5071053;28;20218;-52
2023/05/08 11:27:39;;;;;;;3.50;3.30;;;16.90;99.30;;;;;;5072912;28;20187;-49
2023/05/08 11:30:33;;;;;;;4.23;3.30;;;16.90;98.50;;;;;;5063408;28;20228;-53
2023/05/08 11:33:15;;;;;;;3.30;3.10;;;17.00;98.50;;;;;;5064765;28;20217;-52
2023/05/08 11:35:54;;;;;;;2.87;2.67;;;17.10;97.90;;;;;;5068400;28;20193;-50
2023/05/08 11:38:24;;;;;;;3.23;3.03;;;17.20;96.70;;;;;;5052903;28;20479;-51
2023/05/08 11:41:06;;;;;;;2.83;2.63;;;17.10;96.80;;;;;;5083058;28;20224;-48
2023/05/08 11:44:08;;;;;;;2.87;2.67;;;17.00;95.70;;;;;;5074901;28;20222;-53
2023/05/08 11:46:39;;;;;;;2.40;2.30;;;17.10;95.70;;;;;;5068125;28;20295;-53
2023/05/08 11:49:10;;;;;;;2.80;2.60;;;17.20;95.40;;;;;;5060017;28;20245;-50
2023/05/08 11:51:38;;;;;;;3.33;2.63;;;17.30;95.50;;;;;;5073194;28;20274;-51
2023/05/08 11:54:05;;;;;;;2.70;2.50;;;17.50;94.80;;;;;;5059072;28;20285;-49
2023/05/08 11:56:32;;;;;;;2.67;2.47;;;17.60;94.10;;;;;;5080190;28;20285;-52
2023/05/08 11:59:03;;;;;;;2.47;2.30;;;17.70;93.40;;;;;;5074284;28;20229;-52
2023/05/08 12:01:30;;;;;;;2.93;2.03;;;17.80;92.80;;;;;;5070488;28;20720;-53
2023/05/08 12:04:01;;;;;;;2.10;2.00;;;17.90;99.90;;;;;;5067651;28;20968;-53
2023/05/08 12:06:30;;;;;;;2.53;1.93;;;;;;;;;;5073759;28;20714;-52
2023/05/08 12:08:58;;;;;;;1.97;1.87;;;18.10;91.60;;;;;;5054585;28;20245;-53
2023/05/08 12:11:26;;;;;;;3.83;1.90;;;18.20;91.00;;;;;;5082755;28;20691;-51
2023/05/08 12:13:54;;;;;;;1.80;1.70;;;18.40;90.80;;;;;;5069901;28;20201;-53
2023/05/08 12:16:22;;;;;;;2.20;2.10;;;18.60;99.90;;;;;;5072383;28;20236;-52
2023/05/08 12:18:50;;;;;;;1.90;1.80;;;18.80;99.90;;;;;;5065267;28;20234;-50
2023/05/08 12:21:20;;;;;;;2.00;1.90;;;18.60;99.90;;;;;;5085671;28;20190;-49
2023/05/08 12:23:49;;;;;;;2.60;2.40;;;18.80;87.30;;;;;;5055662;28;21086;-52
2023/05/08 12:26:17;;;;;;;2.23;2.10;;;18.90;87.50;;;;;;5078511;28;20202;-45
2023/05/08 12:28:46;;;;;;;3.37;2.20;;;19.20;86.20;;;;;;5068341;28;20202;-49
2023/05/08 12:31:12;;;;;;;1.93;1.83;;;19.20;85.80;;;;;;5062591;28;20205;-48
2023/05/08 12:33:39;;;;;;;8.03;2.20;;;19.00;85.60;;;;;;5064344;28;20214;-50
2023/05/08 12:36:07;;;;;;;2.00;1.90;;;19.10;85.20;;;;;;5077164;28;20271;-55
2023/05/08 12:38:34;;;;;;;1.77;1.67;;;19.20;83.80;;;;;;5072204;28;20229;-52
2023/05/08 12:41:05;;;;;;;2.23;2.03;;;19.30;83.90;;;;;;5052604;28;20213;-52
2023/05/08 12:43:33;;;;;;;1.90;1.80;;;19.30;83.60;;;;;;5064814;28;20371;-46
2023/05/08 12:46:00;;;;;;;3.40;1.47;;;19.40;83.10;;;;;;5068399;28;20550;-50
2023/05/08 12:48:28;;;;;;;2.50;1.80;;;19.70;81.40;;;;;;5068446;28;20221;-46
2023/05/08 12:51:00;;;;;;;2.13;1.90;;;20.00;81.10;;;;;;5066053;28;20214;-50
2023/05/08 12:53:30;;;;;;;2.07;1.63;;;20.10;80.80;;;;;;5078522;28;20916;-53
2023/05/08 12:56:00;;;;;;;2.10;1.77;;;20.40;80.70;;;;;;5051365;28;20942;-47
2023/05/08 12:58:30;;;;;;;2.43;1.67;;;20.50;77.60;;;;;;5065444;28;20209;-50
2023/05/08 13:01:06;;;;;;;1.57;1.30;;;20.40;76.10;;;;;;5076526;28;20212;-50
2023/05/08 13:03:32;;;;;;;1.40;1.30;;;20.50;72.00;;;;;;5068559;28;20218;-47
2023/05/08 13:05:59;;;;;;;2.33;1.85;;;20.90;72.80;;;;;;5066450;28;20197;-50
2023/05/08 13:08:31;;;;;;;1.57;1.47;;;20.90;73.80;;;;;;5068515;28;20216;-52